Hancock, New York
Current Conditions -  °F | °C
As of 1:55 AM on Thursday 23 Oct 2014 (Local Time) from KMSV Reporting Station
Overcast Overcast  
Wind Chill: 39°   Ceiling: 4700
Heat Index: 45°   Visibility: 10mi
Dew Point: 45°   Wind: 12mph
Humidity: 100%   Direction: 350°N
Pressure: 29.84"   Gusts: 16mph
Location:  41.95°N, 75.28°W
Report Text: KMSV 230555Z AUTO 35010G14KT 10SM SCT040 BKN047 OVC050 07/07 A2984 RMK AO1 60002 10090 20070 57010
Loading
Personal Weather Stations






























Interactive Weather Map
Tropical Storm Tracking
New forecast layout! Learn more

10-Day Weather Forecast

Advertisements
Track Severe Weather on mobile